createdAt,value
2017-05-10T00:00:02.385Z,6.00
2017-05-10T00:02:32.295Z,5.80
2017-05-10T00:05:02.196Z,5.70
2017-05-10T00:07:31.369Z,5.70
2017-05-10T00:10:00.557Z,5.90
2017-05-10T00:12:29.708Z,5.90
2017-05-10T00:14:59.621Z,5.70
2017-05-10T00:17:29.553Z,5.70
2017-05-10T00:19:58.713Z,5.70
2017-05-10T00:22:27.869Z,5.70
2017-05-10T00:24:57.054Z,5.70
2017-05-10T00:27:26.213Z,5.70
2017-05-10T00:29:55.372Z,5.70
2017-05-10T00:32:24.545Z,5.50
2017-05-10T00:34:53.697Z,5.40
2017-05-10T00:37:22.857Z,5.20
2017-05-10T00:39:52.044Z,5.20
2017-05-10T00:42:21.204Z,5.20
2017-05-10T00:44:50.369Z,5.20
2017-05-10T00:47:19.552Z,5.20
2017-05-10T00:49:48.709Z,5.20
2017-05-10T00:52:17.865Z,5.20
2017-05-10T00:54:47.058Z,5.40
2017-05-10T00:57:16.218Z,5.50
2017-05-10T00:59:46.121Z,5.20
2017-05-10T01:02:15.705Z,5.30
2017-05-10T01:04:44.856Z,5.30
2017-05-10T01:07:14.008Z,5.20
2017-05-10T01:09:43.197Z,5.00
2017-05-10T01:12:12.357Z,5.10
2017-05-10T01:14:41.521Z,5.20
2017-05-10T01:17:11.801Z,5.10
2017-05-10T01:19:40.956Z,5.10
2017-05-10T01:22:10.884Z,5.00
2017-05-10T01:24:40.040Z,4.90
2017-05-10T01:27:09.201Z,4.90
2017-05-10T01:29:38.383Z,4.90
2017-05-10T01:32:07.553Z,4.80
2017-05-10T01:34:37.111Z,4.90
2017-05-10T01:37:05.623Z,4.80
2017-05-10T01:39:34.788Z,5.00
2017-05-10T01:42:03.940Z,5.00
2017-05-10T01:44:33.861Z,4.90
2017-05-10T01:47:03.408Z,4.90
2017-05-10T01:49:32.569Z,4.90
2017-05-10T01:52:02.152Z,4.60
2017-05-10T01:54:31.308Z,4.70
2017-05-10T01:57:00.520Z,4.60
2017-05-10T01:59:29.714Z,4.50
2017-05-10T02:01:58.864Z,4.50
2017-05-10T02:04:28.781Z,4.50
2017-05-10T02:06:58.708Z,4.60
2017-05-10T02:09:28.608Z,4.60
2017-05-10T02:11:58.521Z,4.70
2017-05-10T02:14:28.437Z,4.50
2017-05-10T02:16:58.360Z,4.40
2017-05-10T02:19:28.266Z,4.40
2017-05-10T02:21:58.196Z,4.50
2017-05-10T02:24:28.091Z,4.40
2017-05-10T02:26:56.565Z,4.40
2017-05-10T02:29:25.049Z,4.40
2017-05-10T02:31:53.517Z,4.30
2017-05-10T02:34:22.675Z,4.30
2017-05-10T02:36:51.517Z,4.20
2017-05-10T02:39:20.329Z,4.10
2017-05-10T02:41:50.232Z,4.00
2017-05-10T02:44:19.404Z,4.00
2017-05-10T02:46:48.565Z,3.90
2017-05-10T02:49:17.725Z,3.90
2017-05-10T02:51:46.908Z,3.80
2017-05-10T02:54:16.068Z,3.80
2017-05-10T02:56:45.290Z,3.80
2017-05-10T02:59:14.485Z,3.90
2017-05-10T03:01:43.644Z,3.90
2017-05-10T03:04:12.804Z,3.90
2017-05-10T03:06:41.993Z,3.80
2017-05-10T03:09:11.184Z,3.60
2017-05-10T03:11:40.345Z,3.80
2017-05-10T03:14:10.508Z,3.70
2017-05-10T03:16:39.673Z,3.80
2017-05-10T03:19:08.835Z,3.70
2017-05-10T03:21:38.000Z,3.70
2017-05-10T03:24:07.185Z,3.60
2017-05-10T03:26:36.347Z,3.60
2017-05-10T03:29:06.262Z,3.70
2017-05-10T03:31:36.180Z,3.70
2017-05-10T03:34:06.089Z,3.70
2017-05-10T03:36:36.003Z,3.70
2017-05-10T03:39:05.839Z,3.60
2017-05-10T03:41:35.037Z,3.50
2017-05-10T03:44:04.203Z,3.50
2017-05-10T03:46:33.368Z,3.50
2017-05-10T03:49:02.536Z,3.50
2017-05-10T03:51:31.701Z,3.50
2017-05-10T03:54:00.872Z,3.50
2017-05-10T03:56:30.033Z,3.50
2017-05-10T03:58:59.224Z,3.50
2017-05-10T04:01:28.383Z,3.50
2017-05-10T04:03:57.549Z,3.50
2017-05-10T04:06:26.712Z,3.30
2017-05-10T04:08:55.878Z,3.40
2017-05-10T04:11:25.045Z,3.50
2017-05-10T04:13:54.210Z,3.60
2017-05-10T04:16:23.384Z,3.60
2017-05-10T04:18:52.946Z,3.60
2017-05-10T04:21:22.103Z,3.70
2017-05-10T04:23:52.021Z,3.80
2017-05-10T04:26:21.916Z,3.60
2017-05-10T04:28:51.088Z,3.80
2017-05-10T04:31:20.245Z,3.90
2017-05-10T04:33:49.785Z,3.90
2017-05-10T04:36:18.945Z,4.10
2017-05-10T04:38:48.112Z,4.20
2017-05-10T04:41:18.288Z,4.40
2017-05-10T04:43:47.453Z,4.60
2017-05-10T04:46:17.367Z,4.70
2017-05-10T04:48:47.282Z,4.80
2017-05-10T04:51:17.220Z,4.90
2017-05-10T04:53:46.660Z,5.00
2017-05-10T04:56:15.815Z,5.10
2017-05-10T04:58:44.990Z,5.00
2017-05-10T05:01:14.153Z,4.90
2017-05-10T05:03:43.321Z,4.90
2017-05-10T05:06:12.477Z,5.00
2017-05-10T05:08:41.677Z,5.10
2017-05-10T05:11:10.837Z,5.20
2017-05-10T05:13:39.996Z,5.30
2017-05-10T05:16:09.906Z,5.50
2017-05-10T05:18:39.809Z,5.80
2017-05-10T05:21:08.984Z,6.00
2017-05-10T05:23:38.140Z,6.00
2017-05-10T05:26:07.333Z,6.10
2017-05-10T05:28:36.492Z,6.20
2017-05-10T05:31:05.653Z,6.30
2017-05-10T05:33:34.827Z,6.40
2017-05-10T05:36:03.984Z,6.50
2017-05-10T05:38:32.960Z,6.80
2017-05-10T05:41:02.121Z,6.90
2017-05-10T05:43:31.310Z,7.10
2017-05-10T05:46:01.259Z,7.50
2017-05-10T05:48:30.424Z,8.00
2017-05-10T05:51:00.341Z,8.10
2017-05-10T05:53:30.242Z,8.30
2017-05-10T05:56:00.154Z,8.50
2017-05-10T05:58:29.314Z,8.60
2017-05-10T06:00:58.513Z,8.50
2017-05-10T06:03:27.321Z,8.70
2017-05-10T06:05:56.471Z,8.70
2017-05-10T06:08:25.636Z,9.10
2017-05-10T06:10:55.546Z,9.60
2017-05-10T06:13:24.720Z,9.90
2017-05-10T06:15:53.878Z,9.80
2017-05-10T06:18:23.079Z,10.10
2017-05-10T06:20:52.257Z,10.20
2017-05-10T06:23:22.168Z,10.00
2017-05-10T06:25:52.094Z,9.60
2017-05-10T06:28:21.988Z,9.70
2017-05-10T06:30:51.164Z,10.00
2017-05-10T06:39:03.863Z,9.70
2017-05-10T06:41:33.032Z,9.70
2017-05-10T06:44:02.197Z,9.50
2017-05-10T06:46:31.523Z,9.50
2017-05-10T06:49:01.468Z,9.60
2017-05-10T06:51:31.764Z,9.60
2017-05-10T06:54:01.017Z,9.60
2017-05-10T06:56:30.226Z,9.60
2017-05-10T06:58:59.430Z,9.50
2017-05-10T07:01:28.636Z,9.60
2017-05-10T07:03:57.840Z,9.50
2017-05-10T07:06:27.008Z,9.50
2017-05-10T07:08:56.160Z,9.60
2017-05-10T07:11:25.348Z,9.70
2017-05-10T07:13:54.500Z,9.70
2017-05-10T07:16:23.647Z,9.80
2017-05-10T07:18:52.808Z,9.80
2017-05-10T07:21:21.965Z,9.50
2017-05-10T07:23:51.137Z,9.30
2017-05-10T07:26:20.287Z,9.20
2017-05-10T07:28:49.456Z,9.20
2017-05-10T07:31:18.609Z,9.40
2017-05-10T07:33:47.812Z,9.60
2017-05-10T07:36:17.100Z,9.70
2017-05-10T07:38:46.301Z,9.60
2017-05-10T07:41:15.489Z,9.70
2017-05-10T07:43:44.765Z,9.80
2017-05-10T07:46:14.704Z,9.70
2017-05-10T07:48:43.874Z,9.60
2017-05-10T07:51:13.223Z,9.70
2017-05-10T07:53:42.387Z,9.90
2017-05-10T07:56:12.301Z,9.90
2017-05-10T07:58:42.210Z,9.90
2017-05-10T08:01:12.105Z,9.80
2017-05-10T08:03:41.283Z,9.70
2017-05-10T08:06:10.431Z,9.90
2017-05-10T08:08:40.345Z,10.10
2017-05-10T08:11:10.263Z,10.10
2017-05-10T08:13:40.159Z,10.40
2017-05-10T08:16:09.345Z,10.70
2017-05-10T08:18:38.499Z,10.80
2017-05-10T08:21:07.689Z,10.50
2017-05-10T08:23:36.853Z,10.50
2017-05-10T08:26:06.008Z,10.50
2017-05-10T08:28:35.185Z,10.30
2017-05-10T08:31:04.340Z,10.30
2017-05-10T08:33:33.659Z,10.40
2017-05-10T08:36:02.849Z,10.30
2017-05-10T08:38:32.026Z,10.70
2017-05-10T08:41:01.191Z,10.80
2017-05-10T08:43:30.377Z,10.70
2017-05-10T08:45:59.531Z,10.70
2017-05-10T08:48:28.688Z,10.80
2017-05-10T08:50:57.859Z,11.00
2017-05-10T08:53:27.760Z,11.30
2017-05-10T08:55:57.664Z,11.40
2017-05-10T08:58:26.820Z,11.40
2017-05-10T09:00:56.009Z,11.30
2017-05-10T09:03:25.167Z,11.40
2017-05-10T09:05:55.076Z,11.20
2017-05-10T09:08:24.240Z,11.20
2017-05-10T09:10:53.396Z,11.20
2017-05-10T09:13:23.326Z,11.10
2017-05-10T09:15:52.479Z,11.10
2017-05-10T09:18:21.639Z,11.20
2017-05-10T09:20:50.808Z,11.30
2017-05-10T09:23:19.972Z,11.50
2017-05-10T09:25:49.153Z,11.70
2017-05-10T09:28:18.312Z,11.80
2017-05-10T09:30:47.468Z,11.70
2017-05-10T09:33:16.637Z,11.60
2017-05-10T09:35:45.809Z,11.50
2017-05-10T09:38:14.976Z,11.60
2017-05-10T09:40:44.132Z,11.60
2017-05-10T09:43:13.303Z,11.50
2017-05-10T09:45:42.473Z,11.60
2017-05-10T09:48:12.395Z,11.80
2017-05-10T09:50:42.301Z,11.70
2017-05-10T09:53:11.466Z,11.60
2017-05-10T09:55:40.450Z,11.60
2017-05-10T09:58:09.608Z,11.80
2017-05-10T10:00:39.541Z,11.70
2017-05-10T10:03:08.701Z,11.70
2017-05-10T10:05:37.882Z,11.90
2017-05-10T10:08:07.035Z,11.90
2017-05-10T10:10:36.201Z,12.10
2017-05-10T10:13:06.327Z,12.20
2017-05-10T10:15:36.231Z,12.20
2017-05-10T10:18:05.399Z,12.40
2017-05-10T10:20:34.572Z,12.40
2017-05-10T10:23:03.844Z,12.30
2017-05-10T10:25:33.739Z,12.20
2017-05-10T10:28:02.932Z,12.40
2017-05-10T10:30:32.090Z,12.60
2017-05-10T10:33:01.248Z,12.70
2017-05-10T10:35:31.165Z,12.30
2017-05-10T10:38:01.060Z,12.30
2017-05-10T10:40:30.225Z,12.40
2017-05-10T10:42:59.384Z,12.70
2017-05-10T10:45:29.304Z,12.80
2017-05-10T10:47:59.209Z,12.50
2017-05-10T10:50:29.125Z,12.60
2017-05-10T10:52:59.041Z,13.00
2017-05-10T10:55:28.937Z,12.90
2017-05-10T10:57:58.104Z,13.00
2017-05-10T11:00:27.255Z,13.30
2017-05-10T11:02:57.186Z,13.50
2017-05-10T11:05:26.343Z,13.50
2017-05-10T11:07:55.495Z,13.40
2017-05-10T11:10:24.663Z,13.40
2017-05-10T11:12:54.559Z,13.40
2017-05-10T11:15:23.741Z,13.30
2017-05-10T11:17:52.903Z,13.10
2017-05-10T11:20:22.073Z,13.00
2017-05-10T11:22:51.968Z,13.20
2017-05-10T11:25:21.157Z,13.40
2017-05-10T11:27:50.321Z,13.20
2017-05-10T11:30:19.487Z,13.10
2017-05-10T11:32:49.405Z,13.10
2017-05-10T11:35:19.303Z,12.90
2017-05-10T11:37:48.474Z,12.80
2017-05-10T11:40:17.624Z,12.70
2017-05-10T11:42:46.813Z,13.00
2017-05-10T11:45:15.983Z,13.90
2017-05-10T11:47:45.146Z,14.20
2017-05-10T11:50:14.314Z,14.00
2017-05-10T11:52:44.207Z,13.80
2017-05-10T11:55:13.376Z,13.90
2017-05-10T11:57:42.535Z,14.30
2017-05-10T12:00:12.404Z,14.60
2017-05-10T12:02:41.556Z,15.00
2017-05-10T12:05:10.712Z,15.20
2017-05-10T12:07:39.884Z,15.20
2017-05-10T12:10:09.039Z,15.10
2017-05-10T12:12:38.213Z,14.50
2017-05-10T12:15:07.369Z,14.60
2017-05-10T12:17:36.560Z,14.80
2017-05-10T12:20:05.715Z,14.30
2017-05-10T12:22:35.621Z,13.90
2017-05-10T12:25:04.792Z,14.10
2017-05-10T12:27:33.947Z,14.00
2017-05-10T12:30:03.116Z,14.00
2017-05-10T12:32:32.272Z,14.30
2017-05-10T12:35:01.436Z,14.60
2017-05-10T12:37:30.592Z,14.90
2017-05-10T12:39:59.785Z,15.10
2017-05-10T12:42:29.015Z,15.40
2017-05-10T12:44:58.923Z,14.90
2017-05-10T12:47:28.136Z,14.50
2017-05-10T12:49:58.035Z,14.40
2017-05-10T12:52:27.204Z,14.40
2017-05-10T12:54:56.381Z,15.00
2017-05-10T12:57:25.572Z,15.20
2017-05-10T12:59:54.726Z,14.50
2017-05-10T13:02:23.880Z,14.10
2017-05-10T13:04:53.049Z,14.40
2017-05-10T13:07:22.980Z,15.20
2017-05-10T13:09:52.144Z,16.20
2017-05-10T13:12:21.303Z,16.30
2017-05-10T13:14:50.496Z,16.00
2017-05-10T13:17:19.652Z,16.60
2017-05-10T13:19:49.576Z,16.80
2017-05-10T13:22:19.025Z,16.70
2017-05-10T13:24:48.184Z,16.50
2017-05-10T13:27:17.371Z,16.00
2017-05-10T13:29:47.266Z,15.70
2017-05-10T13:32:16.081Z,16.30
2017-05-10T13:34:45.253Z,16.50
2017-05-10T13:37:14.415Z,16.70
2017-05-10T13:39:43.608Z,16.20
2017-05-10T13:42:12.762Z,16.20
2017-05-10T13:44:42.671Z,16.50
2017-05-10T13:47:12.599Z,16.50
2017-05-10T13:49:42.495Z,16.90
2017-05-10T13:52:11.671Z,16.60
2017-05-10T13:54:40.828Z,16.40
2017-05-10T13:57:09.988Z,16.60
2017-05-10T13:59:39.164Z,16.40
2017-05-10T14:02:08.317Z,16.50
2017-05-10T14:04:37.503Z,16.50
2017-05-10T14:07:07.401Z,16.10
2017-05-10T14:09:36.575Z,15.50
2017-05-10T14:12:05.747Z,15.50
2017-05-10T14:14:34.916Z,16.00
2017-05-10T14:17:04.834Z,16.00
2017-05-10T14:19:34.745Z,16.00
2017-05-10T14:22:03.953Z,16.30
2017-05-10T14:24:33.115Z,16.20
2017-05-10T14:27:02.282Z,16.00
2017-05-10T14:29:31.542Z,15.60
2017-05-10T14:32:01.439Z,15.90
2017-05-10T14:34:30.640Z,15.70
2017-05-10T14:36:59.799Z,15.30
2017-05-10T14:39:28.966Z,15.40
2017-05-10T14:41:58.136Z,15.40
2017-05-10T14:44:27.298Z,15.60
2017-05-10T14:46:56.483Z,15.10
2017-05-10T14:49:25.643Z,14.80
2017-05-10T14:51:55.554Z,15.00
2017-05-10T14:54:24.719Z,15.30
2017-05-10T14:56:53.906Z,15.60
2017-05-10T14:59:23.118Z,15.50
2017-05-10T15:01:52.956Z,15.50
2017-05-10T15:04:22.130Z,15.50
2017-05-10T15:06:51.297Z,15.40
2017-05-10T15:09:20.461Z,15.50
2017-05-10T15:11:50.375Z,15.40
2017-05-10T15:14:20.291Z,15.60
2017-05-10T15:16:50.214Z,15.20
2017-05-10T15:19:20.109Z,14.90
2017-05-10T15:21:49.284Z,14.90
2017-05-10T15:24:18.456Z,14.80
2017-05-10T15:26:47.615Z,14.80
2017-05-10T15:29:17.549Z,15.10
2017-05-10T15:31:46.711Z,15.10
2017-05-10T15:34:15.867Z,15.00
2017-05-10T15:36:45.042Z,14.90
2017-05-10T15:39:14.211Z,15.10
2017-05-10T15:41:43.387Z,15.20
2017-05-10T15:44:12.540Z,15.20
2017-05-10T15:46:41.717Z,14.90
2017-05-10T15:49:11.611Z,15.00
2017-05-10T15:51:41.101Z,14.90
2017-05-10T15:54:10.265Z,14.80
2017-05-10T15:56:39.427Z,14.90
2017-05-10T15:59:08.907Z,15.20
2017-05-10T16:01:38.055Z,15.10
2017-05-10T16:04:07.972Z,14.70
2017-05-10T16:06:37.165Z,14.60
2017-05-10T16:09:07.073Z,15.10
2017-05-10T16:11:37.093Z,15.00
2017-05-10T16:14:07.005Z,14.70
2017-05-10T16:16:37.194Z,14.70
2017-05-10T16:19:06.378Z,14.70
2017-05-10T16:21:35.543Z,14.50
2017-05-10T16:24:04.735Z,14.70
2017-05-10T16:26:34.635Z,14.40
2017-05-10T16:29:05.067Z,14.30
2017-05-10T16:31:34.977Z,14.20
2017-05-10T16:34:04.144Z,14.10
2017-05-10T16:36:33.341Z,14.10
2017-05-10T16:39:02.313Z,14.10
2017-05-10T16:41:31.856Z,14.00
2017-05-10T16:44:01.045Z,14.00
2017-05-10T16:46:30.205Z,13.90
2017-05-10T16:48:59.360Z,14.20
2017-05-10T16:51:28.549Z,14.20
2017-05-10T16:53:57.712Z,13.90
2017-05-10T16:56:26.527Z,13.80
2017-05-10T16:58:55.724Z,13.80
2017-05-10T17:01:24.981Z,13.50
2017-05-10T17:03:54.140Z,13.60
2017-05-10T17:06:23.334Z,13.60
2017-05-10T17:08:52.494Z,13.70
2017-05-10T17:11:21.662Z,13.60
2017-05-10T17:13:51.614Z,13.40
2017-05-10T17:16:20.911Z,13.50
2017-05-10T17:18:50.289Z,13.60
2017-05-10T17:21:19.803Z,13.60
2017-05-10T17:23:49.272Z,13.60
2017-05-10T17:26:18.736Z,13.50
2017-05-10T17:28:48.232Z,13.50
2017-05-10T17:31:17.718Z,13.40
2017-05-10T17:33:47.182Z,13.50
2017-05-10T17:36:16.681Z,13.40
2017-05-10T17:38:46.170Z,13.70
2017-05-10T17:41:16.426Z,13.60
2017-05-10T17:43:47.179Z,13.60
2017-05-10T17:46:16.826Z,13.50
2017-05-10T17:48:47.562Z,13.20
2017-05-10T17:51:17.187Z,13.30
2017-05-10T17:53:47.413Z,13.20
2017-05-10T17:56:17.662Z,13.30
2017-05-10T17:58:47.147Z,13.20
2017-05-10T18:01:17.382Z,13.10
2017-05-10T18:03:47.665Z,12.70
2017-05-10T18:06:17.448Z,12.60
2017-05-10T18:08:46.966Z,12.70
2017-05-10T18:11:16.458Z,12.80
2017-05-10T18:13:45.950Z,12.70
2017-05-10T18:16:15.428Z,12.60
2017-05-10T18:18:45.675Z,12.70
2017-05-10T18:21:15.181Z,12.50
2017-05-10T18:23:44.677Z,12.40
2017-05-10T18:26:14.196Z,12.50
2017-05-10T18:28:43.658Z,12.40
2017-05-10T18:31:13.139Z,12.40
2017-05-10T18:33:42.686Z,12.20
2017-05-10T18:36:12.892Z,11.80
2017-05-10T18:38:42.435Z,11.80
2017-05-10T18:41:11.903Z,11.80
2017-05-10T18:43:41.412Z,11.70
2017-05-10T18:46:10.927Z,11.50
2017-05-10T18:48:41.134Z,11.50
2017-05-10T18:51:10.636Z,11.50
2017-05-10T18:53:40.125Z,11.40
2017-05-10T18:56:09.600Z,11.30
2017-05-10T18:58:39.136Z,11.30
2017-05-10T19:01:08.631Z,11.20
2017-05-10T19:03:38.115Z,11.20
2017-05-10T19:06:07.643Z,11.10
2017-05-10T19:08:37.130Z,11.00
2017-05-10T19:11:06.705Z,10.90
2017-05-10T19:13:35.944Z,10.80
2017-05-10T19:16:04.759Z,10.70
2017-05-10T19:18:33.913Z,10.70
2017-05-10T19:21:03.080Z,10.60
2017-05-10T19:23:32.237Z,10.50
2017-05-10T19:26:02.158Z,10.50
2017-05-10T19:28:32.184Z,10.50
2017-05-10T19:31:02.084Z,10.40
2017-05-10T19:33:32.013Z,10.30
2017-05-10T19:36:01.912Z,10.30
2017-05-10T19:38:31.089Z,10.20
2017-05-10T19:41:00.259Z,10.10
2017-05-10T19:43:29.413Z,9.90
2017-05-10T19:45:59.316Z,9.80
2017-05-10T19:48:28.295Z,9.70
2017-05-10T19:50:57.452Z,9.70
2017-05-10T19:53:26.604Z,9.60
2017-05-10T19:55:55.784Z,9.50
2017-05-10T19:58:24.751Z,9.40
2017-05-10T20:00:53.910Z,9.30
2017-05-10T20:03:23.831Z,9.30
2017-05-10T20:05:53.725Z,9.20
2017-05-10T20:08:22.888Z,9.10
2017-05-10T20:10:52.038Z,9.10
2017-05-10T20:13:21.932Z,9.00
2017-05-10T20:15:51.116Z,9.10
2017-05-10T20:18:20.267Z,9.00
2017-05-10T20:20:49.420Z,9.00
2017-05-10T20:23:18.607Z,8.90
2017-05-10T20:25:47.759Z,8.80
2017-05-10T20:28:16.912Z,8.80
2017-05-10T20:30:46.103Z,8.80
2017-05-10T20:33:15.258Z,8.70
2017-05-10T20:35:44.412Z,8.70
2017-05-10T20:38:13.596Z,8.70
2017-05-10T20:40:43.432Z,8.70
2017-05-10T20:43:12.590Z,8.60
2017-05-10T20:45:42.524Z,8.50
2017-05-10T20:48:11.345Z,8.40
2017-05-10T20:50:40.507Z,8.30
2017-05-10T20:53:09.708Z,8.20
2017-05-10T20:55:39.149Z,8.20
2017-05-10T20:58:08.321Z,8.20
2017-05-10T21:00:37.752Z,8.10
2017-05-10T21:03:06.927Z,8.10
2017-05-10T21:05:36.097Z,8.00
2017-05-10T21:08:05.295Z,8.00
2017-05-10T21:10:34.469Z,7.90
2017-05-10T21:13:03.631Z,7.90
2017-05-10T21:15:32.824Z,7.80
2017-05-10T21:18:01.991Z,7.80
2017-05-10T21:20:31.156Z,7.80
2017-05-10T21:23:00.352Z,7.80
2017-05-10T21:25:29.527Z,7.70
2017-05-10T21:27:58.721Z,7.60
2017-05-10T21:30:27.958Z,7.60
2017-05-10T21:32:57.121Z,7.50
2017-05-10T21:35:26.302Z,7.40
2017-05-10T21:37:55.556Z,7.40
2017-05-10T21:40:24.720Z,7.40
2017-05-10T21:42:53.882Z,7.30
2017-05-10T21:45:23.075Z,7.40
2017-05-10T21:47:52.244Z,7.40
2017-05-10T21:50:21.417Z,7.30
2017-05-10T21:52:50.605Z,7.30
2017-05-10T21:55:19.774Z,7.20
2017-05-10T21:57:48.932Z,7.20
2017-05-10T22:00:18.120Z,7.20
2017-05-10T22:02:47.295Z,7.20
2017-05-10T22:05:16.458Z,7.00
2017-05-10T22:07:45.639Z,7.00
2017-05-10T22:10:15.539Z,7.00
2017-05-10T22:12:44.711Z,7.00
2017-05-10T22:15:13.903Z,6.90
2017-05-10T22:17:43.062Z,7.00
2017-05-10T22:20:12.979Z,6.90
2017-05-10T22:22:42.903Z,7.00
2017-05-10T22:25:12.064Z,7.00
2017-05-10T22:27:41.228Z,6.90
2017-05-10T22:30:10.067Z,6.80
2017-05-10T22:32:39.971Z,6.70
2017-05-10T22:35:09.145Z,6.70
2017-05-10T22:37:38.335Z,6.70
2017-05-10T22:40:07.495Z,6.60
2017-05-10T22:42:37.412Z,6.50
2017-05-10T22:45:07.347Z,6.50
2017-05-10T22:47:36.512Z,6.50
2017-05-10T22:50:06.427Z,6.50
2017-05-10T22:52:35.621Z,6.50
2017-05-10T22:55:04.785Z,6.50
2017-05-10T22:57:33.956Z,6.40
2017-05-10T23:00:03.155Z,6.40
2017-05-10T23:02:32.327Z,6.30
2017-05-10T23:05:02.263Z,6.20
2017-05-10T23:07:31.456Z,6.10
2017-05-10T23:10:00.624Z,6.20
2017-05-10T23:12:30.109Z,6.10
2017-05-10T23:14:59.303Z,6.10
2017-05-10T23:17:28.467Z,6.10
2017-05-10T23:19:57.631Z,6.10
2017-05-10T23:22:27.572Z,6.00
2017-05-10T23:24:56.739Z,6.10
2017-05-10T23:27:25.904Z,6.10
2017-05-10T23:29:55.109Z,6.10
2017-05-10T23:32:24.275Z,6.10
2017-05-10T23:34:53.717Z,6.00
2017-05-10T23:37:22.919Z,6.00
2017-05-10T23:39:52.097Z,6.00
2017-05-10T23:42:21.624Z,6.00
2017-05-10T23:44:50.803Z,5.90
2017-05-10T23:47:19.963Z,5.90
2017-05-10T23:49:49.131Z,5.90
2017-05-10T23:52:18.323Z,5.90
2017-05-10T23:54:47.488Z,5.80
2017-05-10T23:57:16.659Z,5.70
2017-05-10T23:59:45.861Z,5.60
